sensor_id;sensor_type;location;lat;lon;timestamp;pressure;altitude;pressure_sealevel;temperature;humidity
15260;BME280;34462;51.368;12.364;2023-01-30T00:01:17;18913.59;;;-141.84;65.82
15260;BME280;34462;51.368;12.364;2023-01-30T00:03:46;18929.88;;;-141.84;66.38
15260;BME280;34462;51.368;12.364;2023-01-30T00:06:15;18907.50;;;-141.84;66.08
15260;BME280;34462;51.368;12.364;2023-01-30T00:08:43;18899.38;;;-141.84;66.23
15260;BME280;34462;51.368;12.364;2023-01-30T00:11:14;18933.94;;;-141.84;65.79
15260;BME280;34462;51.368;12.364;2023-01-30T00:13:43;18903.44;;;-141.84;65.81
15260;BME280;34462;51.368;12.364;2023-01-30T00:16:12;18891.25;;;-141.84;65.89
15260;BME280;34462;51.368;12.364;2023-01-30T00:18:41;18923.78;;;-141.84;65.85
15260;BME280;34462;51.368;12.364;2023-01-30T00:21:13;18927.84;;;-141.84;65.74
15260;BME280;34462;51.368;12.364;2023-01-30T00:23:43;18935.97;;;-141.84;65.34
15260;BME280;34462;51.368;12.364;2023-01-30T00:26:11;18911.56;;;-141.84;65.55
15260;BME280;34462;51.368;12.364;2023-01-30T00:28:40;18911.56;;;-141.84;65.30
15260;BME280;34462;51.368;12.364;2023-01-30T00:31:08;18946.13;;;-141.84;65.57
15260;BME280;34462;51.368;12.364;2023-01-30T00:33:37;18917.66;;;-141.84;65.46
15260;BME280;34462;51.368;12.364;2023-01-30T00:36:07;18895.31;;;-141.84;65.36
15260;BME280;34462;51.368;12.364;2023-01-30T00:38:37;18905.47;;;-141.84;65.83
15260;BME280;34462;51.368;12.364;2023-01-30T00:41:06;18925.81;;;-141.84;66.19
15260;BME280;34462;51.368;12.364;2023-01-30T00:43:36;18919.69;;;-141.84;66.57
15260;BME280;34462;51.368;12.364;2023-01-30T00:46:32;18893.28;;;-141.84;66.87
15260;BME280;34462;51.368;12.364;2023-01-30T00:49:18;18899.38;;;-141.84;67.00
15260;BME280;34462;51.368;12.364;2023-01-30T00:51:47;18915.63;;;-141.84;67.25
15260;BME280;34462;51.368;12.364;2023-01-30T00:54:16;18940.03;;;-141.84;67.53
15260;BME280;34462;51.368;12.364;2023-01-30T00:56:44;18921.75;;;-141.84;67.91
15260;BME280;34462;51.368;12.364;2023-01-30T00:59:13;18897.34;;;-141.84;67.89
15260;BME280;34462;51.368;12.364;2023-01-30T01:01:41;18921.75;;;-141.84;68.41
15260;BME280;34462;51.368;12.364;2023-01-30T01:04:09;18881.09;;;-141.84;68.83
15260;BME280;34462;51.368;12.364;2023-01-30T01:06:39;18897.34;;;-141.84;68.85
15260;BME280;34462;51.368;12.364;2023-01-30T01:09:07;18877.03;;;-141.84;69.02
15260;BME280;34462;51.368;12.364;2023-01-30T01:11:37;18895.31;;;-141.84;69.11
15260;BME280;34462;51.368;12.364;2023-01-30T01:14:06;18891.25;;;-141.84;69.29
15260;BME280;34462;51.368;12.364;2023-01-30T01:16:35;18897.34;;;-141.84;69.18
15260;BME280;34462;51.368;12.364;2023-01-30T01:19:03;18895.31;;;-141.84;69.52
15260;BME280;34462;51.368;12.364;2023-01-30T01:21:32;18870.94;;;-141.84;69.13
15260;BME280;34462;51.368;12.364;2023-01-30T01:24:00;18909.53;;;-141.84;69.15
15260;BME280;34462;51.368;12.364;2023-01-30T01:26:28;18899.38;;;-141.84;69.01
15260;BME280;34462;51.368;12.364;2023-01-30T01:28:58;18919.69;;;-141.84;68.96
15260;BME280;34462;51.368;12.364;2023-01-30T01:31:27;18899.38;;;-141.84;68.64
15260;BME280;34462;51.368;12.364;2023-01-30T01:33:55;18919.69;;;-141.84;68.57
15260;BME280;34462;51.368;12.364;2023-01-30T01:36:24;18935.97;;;-141.84;69.22
15260;BME280;34462;51.368;12.364;2023-01-30T01:39:12;18885.16;;;-141.84;69.28
15260;BME280;34462;51.368;12.364;2023-01-30T01:41:40;18925.81;;;-141.84;69.80
15260;BME280;34462;51.368;12.364;2023-01-30T01:44:11;18950.19;;;-141.84;69.87
15260;BME280;34462;51.368;12.364;2023-01-30T01:46:44;18917.66;;;-141.84;69.46
15260;BME280;34462;51.368;12.364;2023-01-30T01:49:20;18893.28;;;-141.84;68.83
15260;BME280;34462;51.368;12.364;2023-01-30T01:51:54;18875.00;;;-141.84;68.94
15260;BME280;34462;51.368;12.364;2023-01-30T01:54:32;18923.78;;;-141.84;69.15
15260;BME280;34462;51.368;12.364;2023-01-30T01:57:10;18919.69;;;-141.84;69.56
15260;BME280;34462;51.368;12.364;2023-01-30T01:59:45;18925.81;;;-141.84;69.13
15260;BME280;34462;51.368;12.364;2023-01-30T02:02:16;18940.03;;;-141.84;69.08
15260;BME280;34462;51.368;12.364;2023-01-30T02:04:51;18909.53;;;-141.84;69.42
15260;BME280;34462;51.368;12.364;2023-01-30T02:07:37;18929.88;;;-141.84;69.13
15260;BME280;34462;51.368;12.364;2023-01-30T02:10:10;18944.09;;;-141.84;69.09
15260;BME280;34462;51.368;12.364;2023-01-30T02:12:41;18933.94;;;-141.84;69.56
15260;BME280;34462;51.368;12.364;2023-01-30T02:15:12;18933.94;;;-141.84;68.73
15260;BME280;34462;51.368;12.364;2023-01-30T02:17:40;18923.78;;;-141.84;68.92
15260;BME280;34462;51.368;12.364;2023-01-30T02:20:22;18940.03;;;-141.84;68.73
15260;BME280;34462;51.368;12.364;2023-01-30T02:23:43;18956.28;;;-141.84;68.85
15260;BME280;34462;51.368;12.364;2023-01-30T02:26:46;18946.13;;;-141.84;69.17
15260;BME280;34462;51.368;12.364;2023-01-30T02:29:59;18944.09;;;-141.84;69.52
15260;BME280;34462;51.368;12.364;2023-01-30T02:32:44;18925.81;;;-141.84;69.29
15260;BME280;34462;51.368;12.364;2023-01-30T02:35:30;18933.94;;;-141.84;69.90
15260;BME280;34462;51.368;12.364;2023-01-30T02:38:15;18942.06;;;-141.84;69.46
15260;BME280;34462;51.368;12.364;2023-01-30T02:40:59;18940.03;;;-141.84;69.69
15260;BME280;34462;51.368;12.364;2023-01-30T02:43:38;18940.03;;;-141.84;70.14
15260;BME280;34462;51.368;12.364;2023-01-30T02:46:17;18923.78;;;-141.84;70.41
15260;BME280;34462;51.368;12.364;2023-01-30T02:48:55;18927.84;;;-141.84;70.65
15260;BME280;34462;51.368;12.364;2023-01-30T02:51:29;18940.03;;;-141.84;70.71
15260;BME280;34462;51.368;12.364;2023-01-30T02:53:59;18956.28;;;-141.84;70.76
15260;BME280;34462;51.368;12.364;2023-01-30T02:56:27;18970.50;;;-141.84;70.76
15260;BME280;34462;51.368;12.364;2023-01-30T02:58:59;18960.34;;;-141.84;70.75
15260;BME280;34462;51.368;12.364;2023-01-30T03:05:18;18950.19;;;-141.84;70.49
15260;BME280;34462;51.368;12.364;2023-01-30T03:07:57;18919.69;;;-141.84;70.17
15260;BME280;34462;51.368;12.364;2023-01-30T03:10:37;18960.34;;;-141.84;70.21
15260;BME280;34462;51.368;12.364;2023-01-30T03:13:16;18944.09;;;-141.84;70.44
15260;BME280;34462;51.368;12.364;2023-01-30T03:15:52;18970.50;;;-141.84;70.49
15260;BME280;34462;51.368;12.364;2023-01-30T03:18:22;18984.72;;;-141.84;70.44
15260;BME280;34462;51.368;12.364;2023-01-30T03:20:52;18970.50;;;-141.84;70.36
15260;BME280;34462;51.368;12.364;2023-01-30T03:23:20;18974.56;;;-141.84;70.66
15260;BME280;34462;51.368;12.364;2023-01-30T03:25:48;18984.72;;;-141.84;70.53
15260;BME280;34462;51.368;12.364;2023-01-30T03:28:19;18960.34;;;-141.84;70.99
15260;BME280;34462;51.368;12.364;2023-01-30T03:30:48;18990.81;;;-141.84;71.28
15260;BME280;34462;51.368;12.364;2023-01-30T03:33:16;18946.13;;;-141.84;70.90
15260;BME280;34462;51.368;12.364;2023-01-30T03:35:44;18960.34;;;-141.84;71.21
15260;BME280;34462;51.368;12.364;2023-01-30T03:38:14;18944.09;;;-141.84;70.73
15260;BME280;34462;51.368;12.364;2023-01-30T03:40:42;18976.59;;;-141.84;70.57
15260;BME280;34462;51.368;12.364;2023-01-30T03:43:10;18988.78;;;-141.84;70.89
15260;BME280;34462;51.368;12.364;2023-01-30T03:45:39;19013.16;;;-141.84;70.99
15260;BME280;34462;51.368;12.364;2023-01-30T03:48:07;19005.03;;;-141.84;70.48
15260;BME280;34462;51.368;12.364;2023-01-30T03:50:35;18976.59;;;-141.84;70.87
15260;BME280;34462;51.368;12.364;2023-01-30T03:53:03;18992.84;;;-141.84;70.99
15260;BME280;34462;51.368;12.364;2023-01-30T03:55:33;19005.03;;;-141.84;70.69
15260;BME280;34462;51.368;12.364;2023-01-30T03:58:01;18996.91;;;-141.84;70.40
15260;BME280;34462;51.368;12.364;2023-01-30T04:00:29;19003.00;;;-141.84;70.50
15260;BME280;34462;51.368;12.364;2023-01-30T04:02:57;18962.38;;;-141.84;70.69
15260;BME280;34462;51.368;12.364;2023-01-30T04:05:25;18974.56;;;-141.84;70.85
15260;BME280;34462;51.368;12.364;2023-01-30T04:07:55;18974.56;;;-141.84;71.25
15260;BME280;34462;51.368;12.364;2023-01-30T04:10:25;18996.91;;;-141.84;71.11
15260;BME280;34462;51.368;12.364;2023-01-30T04:12:55;18972.53;;;-141.84;71.05
15260;BME280;34462;51.368;12.364;2023-01-30T04:15:23;18982.69;;;-141.84;71.36
15260;BME280;34462;51.368;12.364;2023-01-30T04:17:51;19005.03;;;-141.84;71.13
15260;BME280;34462;51.368;12.364;2023-01-30T04:20:19;18980.66;;;-141.84;70.92
15260;BME280;34462;51.368;12.364;2023-01-30T04:22:47;19000.97;;;-141.84;71.03
15260;BME280;34462;51.368;12.364;2023-01-30T04:25:16;18994.88;;;-141.84;71.20
15260;BME280;34462;51.368;12.364;2023-01-30T04:27:44;18976.59;;;-141.84;71.08
15260;BME280;34462;51.368;12.364;2023-01-30T04:30:14;19011.13;;;-141.84;70.80
15260;BME280;34462;51.368;12.364;2023-01-30T04:32:42;18988.78;;;-141.84;71.15
15260;BME280;34462;51.368;12.364;2023-01-30T04:35:11;19007.06;;;-141.84;71.20
15260;BME280;34462;51.368;12.364;2023-01-30T04:37:39;18976.59;;;-141.84;71.92
15260;BME280;34462;51.368;12.364;2023-01-30T04:40:09;19013.16;;;-141.84;72.46
15260;BME280;34462;51.368;12.364;2023-01-30T04:42:37;18994.88;;;-141.84;72.64
15260;BME280;34462;51.368;12.364;2023-01-30T04:45:07;19005.03;;;-141.84;72.39
15260;BME280;34462;51.368;12.364;2023-01-30T04:47:36;18988.78;;;-141.84;72.78
15260;BME280;34462;51.368;12.364;2023-01-30T04:50:06;18986.75;;;-141.84;72.63
15260;BME280;34462;51.368;12.364;2023-01-30T04:52:34;19027.41;;;-141.84;72.67
15260;BME280;34462;51.368;12.364;2023-01-30T04:55:06;19011.13;;;-141.84;72.38
15260;BME280;34462;51.368;12.364;2023-01-30T04:57:34;19007.06;;;-141.84;72.19
15260;BME280;34462;51.368;12.364;2023-01-30T05:00:04;19005.03;;;-141.84;71.80
15260;BME280;34462;51.368;12.364;2023-01-30T05:02:32;18996.91;;;-141.84;72.26
15260;BME280;34462;51.368;12.364;2023-01-30T05:05:02;19007.06;;;-141.84;72.15
15260;BME280;34462;51.368;12.364;2023-01-30T05:07:30;18988.78;;;-141.84;72.15
15260;BME280;34462;51.368;12.364;2023-01-30T05:09:58;19019.28;;;-141.84;72.27
15260;BME280;34462;51.368;12.364;2023-01-30T05:12:28;19011.13;;;-141.84;72.45
15260;BME280;34462;51.368;12.364;2023-01-30T05:14:57;19049.75;;;-141.84;72.20
15260;BME280;34462;51.368;12.364;2023-01-30T05:17:25;19025.38;;;-141.84;72.16
15260;BME280;34462;51.368;12.364;2023-01-30T05:19:53;19005.03;;;-141.84;72.41
15260;BME280;34462;51.368;12.364;2023-01-30T05:22:23;19011.13;;;-141.84;72.40
15260;BME280;34462;51.368;12.364;2023-01-30T05:24:51;19021.31;;;-141.84;72.64
15260;BME280;34462;51.368;12.364;2023-01-30T05:27:19;19013.16;;;-141.84;72.69
15260;BME280;34462;51.368;12.364;2023-01-30T05:29:47;19025.38;;;-141.84;72.57
15260;BME280;34462;51.368;12.364;2023-01-30T05:32:18;19033.50;;;-141.84;72.50
15260;BME280;34462;51.368;12.364;2023-01-30T05:34:48;19013.16;;;-141.84;73.02
15260;BME280;34462;51.368;12.364;2023-01-30T05:37:16;19033.50;;;-141.84;72.70
15260;BME280;34462;51.368;12.364;2023-01-30T05:39:45;19017.25;;;-141.84;72.55
15260;BME280;34462;51.368;12.364;2023-01-30T05:42:14;18998.94;;;-141.84;72.67
15260;BME280;34462;51.368;12.364;2023-01-30T05:44:42;19021.31;;;-141.84;72.74
15260;BME280;34462;51.368;12.364;2023-01-30T05:47:12;19041.63;;;-141.84;72.57
15260;BME280;34462;51.368;12.364;2023-01-30T05:49:40;19041.63;;;-141.84;72.50
15260;BME280;34462;51.368;12.364;2023-01-30T05:52:08;19031.47;;;-141.84;72.62
15260;BME280;34462;51.368;12.364;2023-01-30T05:54:36;19009.09;;;-141.84;72.80
15260;BME280;34462;51.368;12.364;2023-01-30T05:57:06;19009.09;;;-141.84;73.07
15260;BME280;34462;51.368;12.364;2023-01-30T05:59:34;19045.69;;;-141.84;73.06
15260;BME280;34462;51.368;12.364;2023-01-30T06:02:02;19047.72;;;-141.84;73.04
15260;BME280;34462;51.368;12.364;2023-01-30T06:04:30;19009.09;;;-141.84;73.77
15260;BME280;34462;51.368;12.364;2023-01-30T06:06:58;18990.81;;;-141.84;73.79
15260;BME280;34462;51.368;12.364;2023-01-30T06:09:26;19013.16;;;-141.84;74.17
15260;BME280;34462;51.368;12.364;2023-01-30T06:11:54;18994.88;;;-141.84;74.40
15260;BME280;34462;51.368;12.364;2023-01-30T06:14:23;18972.53;;;-141.84;74.13
15260;BME280;34462;51.368;12.364;2023-01-30T06:16:52;19021.31;;;-141.84;74.01
15260;BME280;34462;51.368;12.364;2023-01-30T06:19:20;19033.50;;;-141.84;74.49
15260;BME280;34462;51.368;12.364;2023-01-30T06:21:48;19027.41;;;-141.84;74.59
15260;BME280;34462;51.368;12.364;2023-01-30T06:24:16;19005.03;;;-141.84;74.55
15260;BME280;34462;51.368;12.364;2023-01-30T06:26:44;18986.75;;;-141.84;74.50
15260;BME280;34462;51.368;12.364;2023-01-30T06:29:12;19019.28;;;-141.84;74.41
15260;BME280;34462;51.368;12.364;2023-01-30T06:31:42;19057.88;;;-141.84;74.64
15260;BME280;34462;51.368;12.364;2023-01-30T06:34:10;19023.34;;;-141.84;74.54
15260;BME280;34462;51.368;12.364;2023-01-30T06:36:38;19009.09;;;-141.84;74.60
15260;BME280;34462;51.368;12.364;2023-01-30T06:39:07;19053.81;;;-141.84;74.61
15260;BME280;34462;51.368;12.364;2023-01-30T06:41:35;19023.34;;;-141.84;74.84
15260;BME280;34462;51.368;12.364;2023-01-30T06:44:03;19041.63;;;-141.84;75.20
15260;BME280;34462;51.368;12.364;2023-01-30T06:46:31;19000.97;;;-141.84;76.13
15260;BME280;34462;51.368;12.364;2023-01-30T06:49:01;19011.13;;;-141.84;75.87
15260;BME280;34462;51.368;12.364;2023-01-30T06:51:29;19017.25;;;-141.84;75.75
15260;BME280;34462;51.368;12.364;2023-01-30T06:53:58;18982.69;;;-141.84;76.07
15260;BME280;34462;51.368;12.364;2023-01-30T06:56:26;19031.47;;;-141.84;76.38
15260;BME280;34462;51.368;12.364;2023-01-30T06:58:54;19015.19;;;-141.84;76.00
15260;BME280;34462;51.368;12.364;2023-01-30T07:01:22;19009.09;;;-141.84;75.92
15260;BME280;34462;51.368;12.364;2023-01-30T07:03:50;19023.34;;;-141.84;75.45
15260;BME280;34462;51.368;12.364;2023-01-30T07:06:20;19023.34;;;-141.84;75.37
15260;BME280;34462;51.368;12.364;2023-01-30T07:08:48;19025.38;;;-141.84;75.21
15260;BME280;34462;51.368;12.364;2023-01-30T07:11:16;18986.75;;;-141.84;75.12
15260;BME280;34462;51.368;12.364;2023-01-30T07:13:44;18990.81;;;-141.84;74.98
15260;BME280;34462;51.368;12.364;2023-01-30T07:16:12;19033.50;;;-141.84;75.13
15260;BME280;34462;51.368;12.364;2023-01-30T07:18:40;19000.97;;;-141.84;75.88
15260;BME280;34462;51.368;12.364;2023-01-30T07:21:08;19015.19;;;-141.84;76.22
15260;BME280;34462;51.368;12.364;2023-01-30T07:23:38;18946.13;;;-141.84;76.26
15260;BME280;34462;51.368;12.364;2023-01-30T07:26:06;19007.06;;;-141.84;76.46
15260;BME280;34462;51.368;12.364;2023-01-30T07:28:34;19005.03;;;-141.84;76.61
15260;BME280;34462;51.368;12.364;2023-01-30T07:31:02;18964.41;;;-141.84;76.77
15260;BME280;34462;51.368;12.364;2023-01-30T07:33:30;18976.59;;;-141.84;76.95
15260;BME280;34462;51.368;12.364;2023-01-30T07:35:58;19003.00;;;-141.84;76.57
15260;BME280;34462;51.368;12.364;2023-01-30T07:38:26;19013.16;;;-141.84;76.48
15260;BME280;34462;51.368;12.364;2023-01-30T07:40:57;18986.75;;;-141.84;76.37
15260;BME280;34462;51.368;12.364;2023-01-30T07:43:25;19025.38;;;-141.84;76.58
15260;BME280;34462;51.368;12.364;2023-01-30T07:45:53;19025.38;;;-141.84;76.84
15260;BME280;34462;51.368;12.364;2023-01-30T07:48:21;19013.16;;;-141.84;76.54
15260;BME280;34462;51.368;12.364;2023-01-30T07:50:49;19023.34;;;-141.84;75.85
15260;BME280;34462;51.368;12.364;2023-01-30T07:53:18;19039.59;;;-141.84;75.49
15260;BME280;34462;51.368;12.364;2023-01-30T07:55:46;19023.34;;;-141.84;75.89
15260;BME280;34462;51.368;12.364;2023-01-30T07:58:16;19053.81;;;-141.84;75.36
15260;BME280;34462;51.368;12.364;2023-01-30T08:00:44;19068.03;;;-141.84;75.17
15260;BME280;34462;51.368;12.364;2023-01-30T08:03:13;19053.81;;;-141.84;74.74
15260;BME280;34462;51.368;12.364;2023-01-30T08:05:44;19029.44;;;-141.84;74.76
15260;BME280;34462;51.368;12.364;2023-01-30T08:08:12;19033.50;;;-141.84;74.90
15260;BME280;34462;51.368;12.364;2023-01-30T08:10:41;19053.81;;;-141.84;74.11
15260;BME280;34462;51.368;12.364;2023-01-30T08:13:09;19037.56;;;-141.84;74.23
15260;BME280;34462;51.368;12.364;2023-01-30T08:15:38;19019.28;;;-141.84;74.47
15260;BME280;34462;51.368;12.364;2023-01-30T08:18:06;19066.00;;;-141.84;74.55
15260;BME280;34462;51.368;12.364;2023-01-30T08:20:35;19049.75;;;-141.84;73.76
15260;BME280;34462;51.368;12.364;2023-01-30T08:23:04;19070.06;;;-141.84;73.46
15260;BME280;34462;51.368;12.364;2023-01-30T08:25:32;19059.91;;;-141.84;73.31
15260;BME280;34462;51.368;12.364;2023-01-30T08:28:02;19053.81;;;-141.84;73.55
15260;BME280;34462;51.368;12.364;2023-01-30T08:30:30;19057.88;;;-141.84;73.77
15260;BME280;34462;51.368;12.364;2023-01-30T08:33:00;19055.84;;;-141.84;73.66
15260;BME280;34462;51.368;12.364;2023-01-30T08:35:28;19074.13;;;-141.84;73.48
15260;BME280;34462;51.368;12.364;2023-01-30T08:37:56;19078.19;;;-141.84;73.57
15260;BME280;34462;51.368;12.364;2023-01-30T08:40:26;19049.75;;;-141.84;73.57
15260;BME280;34462;51.368;12.364;2023-01-30T08:42:54;19116.81;;;-141.84;73.41
15260;BME280;34462;51.368;12.364;2023-01-30T08:45:22;19080.22;;;-141.84;73.06
15260;BME280;34462;51.368;12.364;2023-01-30T08:47:50;19100.53;;;-141.84;72.71
15260;BME280;34462;51.368;12.364;2023-01-30T08:50:20;19059.91;;;-141.84;72.85
15260;BME280;34462;51.368;12.364;2023-01-30T08:52:48;19096.47;;;-141.84;72.73
15260;BME280;34462;51.368;12.364;2023-01-30T08:55:16;19094.44;;;-141.84;72.55
15260;BME280;34462;51.368;12.364;2023-01-30T08:57:44;19090.38;;;-141.84;72.04
15260;BME280;34462;51.368;12.364;2023-01-30T09:00:14;19106.66;;;-141.84;71.99
15260;BME280;34462;51.368;12.364;2023-01-30T09:02:43;19084.28;;;-141.84;72.40
15260;BME280;34462;51.368;12.364;2023-01-30T09:05:14;19096.47;;;-141.84;72.84
15260;BME280;34462;51.368;12.364;2023-01-30T09:07:44;19078.19;;;-141.84;72.65
15260;BME280;34462;51.368;12.364;2023-01-30T09:10:12;19116.81;;;-141.84;72.04
15260;BME280;34462;51.368;12.364;2023-01-30T09:12:40;19118.84;;;-141.84;71.87
15260;BME280;34462;51.368;12.364;2023-01-30T09:15:09;19108.69;;;-141.84;71.57
15260;BME280;34462;51.368;12.364;2023-01-30T09:17:37;19129.00;;;-141.84;71.23
15260;BME280;34462;51.368;12.364;2023-01-30T09:20:08;19116.81;;;-141.84;71.37
15260;BME280;34462;51.368;12.364;2023-01-30T09:22:38;19110.72;;;-141.84;71.69
15260;BME280;34462;51.368;12.364;2023-01-30T09:25:08;19112.75;;;-141.84;71.88
15260;BME280;34462;51.368;12.364;2023-01-30T09:27:36;19088.34;;;-141.84;71.28
15260;BME280;34462;51.368;12.364;2023-01-30T09:30:06;19122.91;;;-141.84;70.86
15260;BME280;34462;51.368;12.364;2023-01-30T09:32:35;19147.28;;;-141.84;69.73
15260;BME280;34462;51.368;12.364;2023-01-30T09:35:04;19129.00;;;-141.84;69.55
15260;BME280;34462;51.368;12.364;2023-01-30T09:37:32;19139.16;;;-141.84;69.43
15260;BME280;34462;51.368;12.364;2023-01-30T09:40:00;19169.63;;;-141.84;69.24
15260;BME280;34462;51.368;12.364;2023-01-30T09:42:57;19173.69;;;-141.84;69.65
15260;BME280;34462;51.368;12.364;2023-01-30T09:45:43;19118.84;;;-141.84;69.22
15260;BME280;34462;51.368;12.364;2023-01-30T09:48:23;19159.47;;;-141.84;69.25
15260;BME280;34462;51.368;12.364;2023-01-30T09:51:18;19122.91;;;-141.84;69.48
15260;BME280;34462;51.368;12.364;2023-01-30T09:56:43;19169.63;;;-141.84;69.98
15260;BME280;34462;51.368;12.364;2023-01-30T09:59:24;19157.44;;;-141.84;70.13
15260;BME280;34462;51.368;12.364;2023-01-30T10:02:21;19149.31;;;-141.84;70.20
15260;BME280;34462;51.368;12.364;2023-01-30T10:04:51;19155.41;;;-141.84;70.22
15260;BME280;34462;51.368;12.364;2023-01-30T10:07:49;19165.56;;;-141.84;70.56
15260;BME280;34462;51.368;12.364;2023-01-30T10:10:44;19175.72;;;-141.84;69.99
15260;BME280;34462;51.368;12.364;2023-01-30T10:13:34;19153.38;;;-141.84;69.69
15260;BME280;34462;51.368;12.364;2023-01-30T10:16:17;19183.84;;;-141.84;69.67
15260;BME280;34462;51.368;12.364;2023-01-30T10:19:28;19171.66;;;-141.84;69.37
15260;BME280;34462;51.368;12.364;2023-01-30T10:22:18;19165.56;;;-141.84;69.88
15260;BME280;34462;51.368;12.364;2023-01-30T10:25:00;19163.53;;;-141.84;69.96
15260;BME280;34462;51.368;12.364;2023-01-30T10:27:31;19153.38;;;-141.84;70.48
15260;BME280;34462;51.368;12.364;2023-01-30T10:30:04;19102.56;;;-141.84;70.67
15260;BME280;34462;51.368;12.364;2023-01-30T10:32:44;19131.03;;;-141.84;71.02
15260;BME280;34462;51.368;12.364;2023-01-30T10:35:18;19116.81;;;-141.84;71.21
15260;BME280;34462;51.368;12.364;2023-01-30T10:37:56;19143.22;;;-141.84;71.38
15260;BME280;34462;51.368;12.364;2023-01-30T10:40:33;19124.94;;;-141.84;71.13
15260;BME280;34462;51.368;12.364;2023-01-30T10:43:15;19133.06;;;-141.84;70.72
15260;BME280;34462;51.368;12.364;2023-01-30T10:45:54;19167.59;;;-141.84;70.47
15260;BME280;34462;51.368;12.364;2023-01-30T10:48:51;19165.56;;;-141.84;70.50
15260;BME280;34462;51.368;12.364;2023-01-30T10:51:39;19145.25;;;-141.84;70.21
15260;BME280;34462;51.368;12.364;2023-01-30T10:54:16;19159.47;;;-141.84;70.27
15260;BME280;34462;51.368;12.364;2023-01-30T10:56:57;19147.28;;;-141.84;70.48
15260;BME280;34462;51.368;12.364;2023-01-30T10:59:43;19122.91;;;-141.84;71.29
15260;BME280;34462;51.368;12.364;2023-01-30T11:02:23;19169.63;;;-141.84;71.43
15260;BME280;34462;51.368;12.364;2023-01-30T11:04:59;19108.69;;;-141.84;71.75
15260;BME280;34462;51.368;12.364;2023-01-30T11:07:32;19143.22;;;-141.84;71.73
15260;BME280;34462;51.368;12.364;2023-01-30T11:10:00;19147.28;;;-141.84;70.95
15260;BME280;34462;51.368;12.364;2023-01-30T11:12:28;19126.97;;;-141.84;70.96
15260;BME280;34462;51.368;12.364;2023-01-30T11:14:58;19139.16;;;-141.84;70.75
15260;BME280;34462;51.368;12.364;2023-01-30T11:17:34;19163.53;;;-141.84;70.99
15260;BME280;34462;51.368;12.364;2023-01-30T11:20:12;19151.34;;;-141.84;70.97
15260;BME280;34462;51.368;12.364;2023-01-30T11:22:47;19139.16;;;-141.84;70.67
15260;BME280;34462;51.368;12.364;2023-01-30T11:25:19;19179.78;;;-141.84;70.67
15260;BME280;34462;51.368;12.364;2023-01-30T11:27:55;19200.13;;;-141.84;69.98
15260;BME280;34462;51.368;12.364;2023-01-30T11:30:28;19155.41;;;-141.84;69.97
15260;BME280;34462;51.368;12.364;2023-01-30T11:33:10;19181.81;;;-141.84;70.07
15260;BME280;34462;51.368;12.364;2023-01-30T11:35:54;19175.72;;;-141.84;69.76
15260;BME280;34462;51.368;12.364;2023-01-30T11:38:26;19194.03;;;-141.84;69.90
15260;BME280;34462;51.368;12.364;2023-01-30T11:41:16;19210.28;;;-141.84;68.59
15260;BME280;34462;51.368;12.364;2023-01-30T11:43:45;19246.84;;;-141.84;67.72
15260;BME280;34462;51.368;12.364;2023-01-30T11:46:18;19204.19;;;-141.84;68.33
15260;BME280;34462;51.368;12.364;2023-01-30T11:48:52;19192.00;;;-141.84;68.37
15260;BME280;34462;51.368;12.364;2023-01-30T11:51:45;19224.50;;;-141.84;68.36
15260;BME280;34462;51.368;12.364;2023-01-30T11:54:18;19234.66;;;-141.84;68.68
15260;BME280;34462;51.368;12.364;2023-01-30T11:56:52;19198.09;;;-141.84;68.49
15260;BME280;34462;51.368;12.364;2023-01-30T11:59:26;19206.22;;;-141.84;69.13
15260;BME280;34462;51.368;12.364;2023-01-30T12:02:14;19185.88;;;-141.84;69.05
15260;BME280;34462;51.368;12.364;2023-01-30T12:04:44;19185.88;;;-141.84;69.41
15260;BME280;34462;51.368;12.364;2023-01-30T12:07:22;19210.28;;;-141.84;69.79
15260;BME280;34462;51.368;12.364;2023-01-30T12:09:51;19189.97;;;-141.84;69.77
15260;BME280;34462;51.368;12.364;2023-01-30T12:12:32;19157.44;;;-141.84;70.38
15260;BME280;34462;51.368;12.364;2023-01-30T12:15:20;19183.84;;;-141.84;71.13
15260;BME280;34462;51.368;12.364;2023-01-30T12:17:58;19175.72;;;-141.84;71.23
15260;BME280;34462;51.368;12.364;2023-01-30T12:20:47;19165.56;;;-141.84;70.84
15260;BME280;34462;51.368;12.364;2023-01-30T12:23:24;19200.13;;;-141.84;69.76
15260;BME280;34462;51.368;12.364;2023-01-30T12:26:04;19181.81;;;-141.84;68.86
15260;BME280;34462;51.368;12.364;2023-01-30T12:28:43;19192.00;;;-141.84;69.08
15260;BME280;34462;51.368;12.364;2023-01-30T12:31:21;19171.66;;;-141.84;69.69
15260;BME280;34462;51.368;12.364;2023-01-30T12:33:51;19220.44;;;-141.84;69.74
15260;BME280;34462;51.368;12.364;2023-01-30T12:36:35;19206.22;;;-141.84;69.05
15260;BME280;34462;51.368;12.364;2023-01-30T12:39:33;19248.88;;;-141.84;68.36
15260;BME280;34462;51.368;12.364;2023-01-30T12:42:27;19222.47;;;-141.84;67.97
15260;BME280;34462;51.368;12.364;2023-01-30T12:45:18;19224.50;;;-141.84;68.14
15260;BME280;34462;51.368;12.364;2023-01-30T12:48:31;19234.66;;;-141.84;68.48
15260;BME280;34462;51.368;12.364;2023-01-30T12:51:31;19214.34;;;-141.84;68.38
15260;BME280;34462;51.368;12.364;2023-01-30T12:54:15;19267.16;;;-141.84;67.92
15260;BME280;34462;51.368;12.364;2023-01-30T12:57:02;19273.28;;;-141.84;67.67
15260;BME280;34462;51.368;12.364;2023-01-30T12:59:45;19267.16;;;-141.84;67.84
15260;BME280;34462;51.368;12.364;2023-01-30T13:02:41;19257.00;;;-141.84;67.76
15260;BME280;34462;51.368;12.364;2023-01-30T13:05:27;19238.72;;;-141.84;68.05
15260;BME280;34462;51.368;12.364;2023-01-30T13:08:14;19226.53;;;-141.84;68.08